Etusivu
METAR-TAF:

METAR-TAF

Lentoasemat :

Boise, Idaho, Yhdysvallat

Leveyspiiri: 43-34-00N, Pituuspiiri: 116-14-26W, korkeus merenpinnasta: 871 m

Tämänhetkinen sää

Tämä raportti tehtiin 47 minuuttia sitten, kello 15.53 UTC
tyyntä
Lämpötila 6°C
Kosteus 61%
Ilmanpaine 1020 hPa
Näkyvyys: 16.1 km
selkeää

METAR: KBOI 181553Z 00000KT 10SM CLR 06/M01 A3013 RMK AO2 SLP206 T00561011

Aika: 09:40 (16:40 UTC)

Sääennuste

Tämä raportti tehtiin 5 tuntia ja 1 minuuttia sitten, kello 11.39 UTC
Ennuste voimassa 18. päivästä klo 12 UTC - 19. päivään klo 12 UTC
Tuuli 5 kn kaakosta
Näkyvyys: 10 km
Hajanaisia pilviä 6000 ft:n korkeudessa
Hajanaisia pilviä 20000 ft:n korkeudessa
From 19. päivästä klo 1100 UTC
Tuuli 6 kn kaakosta
Näkyvyys: 10 km
Hajonneita pilviä 3500 ft:n korkeudessa
Pilvistä 5000 ft:n korkeudessa
heikkoja vesikuuroja

TAF: KBOI 181139Z 1812/1912 14005KT P6SM SCT060 SCT200 FM191100 14006KT P6SM -SHRA BKN035 OVC050

Säähavainnot ja -ennusteet yli 4000 lentoasemalta (METAR- ja TAF-raportit).

Käytössä olevat sääasemat on merkitty karttaan keltaisilla ja punaisilla pisteillä.

Aseta hiiri pisteen päälle nähdäksesi sääaseman nimen.

Klikkaa sitten nähdäksesi säähavainnot ja -ennusteet.

Kartan vaihtaminen: klikkaa mustalla rastilla varustettuja vihreitä pisteitä, niin voit zoomata sisään; viivalla varustettua vihreää pistettä, niin voit zoomata ulos tai vihreitä nuolia, niin pääset viereisille kartoille.


METAR-TAF: